Time;durP1;ratioP1;P1;durP2;ratioP2;P2;SDS_P1;SDS_P2;PMS_P1;PMS_P2;Temp;Humidity;BMP_temperature;BMP_pressure;BME280_temperature;BME280_humidity;BME280_pressure;Samples;Min_cycle;Max_cycle;Signal;HPM_P1;HPM_P2
2022/03/13 00:02:21;;;;;;;236.60;78.90;;;;;;;-3.88;45.80;101402.04;129593;1276;108893;-75
2022/03/13 00:05:27;;;;;;;247.80;82.50;;;;;;;-3.88;45.96;101409.51;129733;1276;108797;-76
2022/03/13 00:08:34;;;;;;;235.80;78.30;;;;;;;-3.93;46.01;101406.14;129548;1276;108953;-76
2022/03/13 00:11:39;;;;;;;231.40;80.70;;;;;;;-4.01;46.11;101403.69;129637;1276;108977;-76
2022/03/13 00:14:44;;;;;;;241.30;79.50;;;;;;;-4.06;46.08;101405.36;129591;1276;108859;-76
2022/03/13 00:17:50;;;;;;;225.80;79.40;;;;;;;-4.07;46.03;101407.29;129693;1276;108879;-74
2022/03/13 00:20:57;;;;;;;219.30;76.10;;;;;;;-4.08;46.33;101406.96;129483;1276;108861;-73
2022/03/13 00:24:02;;;;;;;235.50;84.10;;;;;;;-4.14;46.10;101405.84;129464;1276;108687;-73
2022/03/13 00:27:08;;;;;;;225.30;80.50;;;;;;;-4.20;46.32;101409.09;129510;1276;108710;-74
2022/03/13 00:30:16;;;;;;;231.70;82.50;;;;;;;-4.21;46.40;101410.86;129599;1276;108785;-75
2022/03/13 00:33:23;;;;;;;231.30;84.70;;;;;;;-4.23;46.61;101412.30;129528;1276;108968;-73
2022/03/13 00:36:28;;;;;;;219.50;85.60;;;;;;;-4.27;46.43;101408.90;129564;1276;108774;-73
2022/03/13 00:39:40;;;;;;;219.80;83.20;;;;;;;-4.30;46.55;101408.80;129743;1276;108465;-73
2022/03/13 00:42:45;;;;;;;226.00;79.60;;;;;;;-4.35;46.70;101406.10;129652;1275;108696;-74
2022/03/13 00:45:52;;;;;;;206.40;77.10;;;;;;;-4.39;46.90;101404.63;129723;1275;108951;-74
2022/03/13 00:48:58;;;;;;;204.60;76.00;;;;;;;-4.39;47.14;101400.11;129529;1276;109732;-74
2022/03/13 00:52:05;;;;;;;215.10;78.30;;;;;;;-4.42;46.91;101396.52;129684;1275;108609;-74
2022/03/13 00:55:11;;;;;;;194.90;74.00;;;;;;;-4.42;46.81;101392.52;129476;1276;108507;-72
2022/03/13 00:58:17;;;;;;;202.00;75.40;;;;;;;-4.42;47.10;101388.53;129502;1275;109053;-72
2022/03/13 01:01:22;;;;;;;213.50;77.50;;;;;;;-4.43;47.24;101396.52;129721;1276;108587;-74
2022/03/13 01:04:28;;;;;;;205.80;76.90;;;;;;;-4.44;47.32;101391.18;129700;1275;107654;-74
2022/03/13 01:07:34;;;;;;;212.50;81.30;;;;;;;-4.49;47.18;101388.15;129699;1276;108626;-76
2022/03/13 01:10:39;;;;;;;234.30;86.30;;;;;;;-4.54;47.30;101386.33;129770;1276;108779;-76
2022/03/13 01:13:45;;;;;;;221.00;83.20;;;;;;;-4.61;47.70;101387.67;129751;1276;108887;-75
2022/03/13 01:16:59;;;;;;;232.70;85.70;;;;;;;-4.63;47.76;101382.86;129697;1276;108905;-74
2022/03/13 01:20:18;;;;;;;236.00;86.80;;;;;;;-4.64;48.01;101377.14;129545;1276;108671;-74
2022/03/13 01:23:24;;;;;;;224.10;84.20;;;;;;;-4.68;47.57;101380.71;129540;1276;107739;-75
2022/03/13 01:26:39;;;;;;;223.90;84.60;;;;;;;-4.69;47.93;101378.98;129530;1276;108758;-75
2022/03/13 01:29:46;;;;;;;229.60;84.80;;;;;;;-4.66;48.16;101380.14;129495;1275;108855;-72
2022/03/13 01:32:56;;;;;;;218.80;83.50;;;;;;;-4.65;47.99;101381.84;129534;1276;108683;-75
2022/03/13 01:36:01;;;;;;;220.00;81.10;;;;;;;-4.64;47.91;101380.77;129604;1276;108983;-75
2022/03/13 01:39:08;;;;;;;213.50;80.40;;;;;;;-4.64;48.13;101381.30;129611;1276;107289;-76
2022/03/13 01:42:13;;;;;;;210.80;80.50;;;;;;;-4.64;48.39;101380.10;129553;1276;108699;-75
2022/03/13 01:45:24;;;;;;;205.90;77.30;;;;;;;-4.66;48.33;101380.81;129604;1276;108890;-74
2022/03/13 01:48:30;;;;;;;213.20;79.00;;;;;;;-4.67;48.17;101380.33;129553;1276;107903;-74
2022/03/13 01:51:37;;;;;;;219.40;80.90;;;;;;;-4.68;48.20;101377.21;129550;1276;108712;-75
2022/03/13 01:54:45;;;;;;;212.60;79.70;;;;;;;-4.67;48.32;101376.52;129550;1275;108731;-74
2022/03/13 01:57:51;;;;;;;212.20;80.30;;;;;;;-4.68;48.16;101375.81;129524;1276;109715;-74
2022/03/13 02:00:56;;;;;;;211.50;79.70;;;;;;;-4.69;48.44;101378.45;129524;1276;106961;-74
2022/03/13 02:04:02;;;;;;;221.60;84.10;;;;;;;-4.70;48.37;101381.24;129635;1275;108842;-76
2022/03/13 02:07:08;;;;;;;227.10;84.20;;;;;;;-4.71;48.39;101382.66;129268;1276;443437;-75
2022/03/13 02:10:14;;;;;;;234.30;83.80;;;;;;;-4.72;48.25;101379.36;129625;1276;108720;-76
2022/03/13 02:13:21;;;;;;;230.50;85.70;;;;;;;-4.76;48.31;101373.71;129558;1276;107572;-75
2022/03/13 02:16:29;;;;;;;242.70;87.60;;;;;;;-4.79;48.48;101376.88;129590;1275;108742;-78
2022/03/13 02:19:35;;;;;;;236.60;86.80;;;;;;;-4.84;48.44;101376.97;129680;1276;108453;-75
2022/03/13 02:22:46;;;;;;;249.40;86.20;;;;;;;-4.94;48.70;101378.89;129747;1276;109003;-74
2022/03/13 02:25:53;;;;;;;245.60;86.20;;;;;;;-4.99;48.85;101380.38;129586;1276;108932;-73
2022/03/13 02:28:58;;;;;;;237.80;87.30;;;;;;;-5.00;48.80;101382.30;129570;1276;108916;-74
2022/03/13 02:32:05;;;;;;;227.70;84.20;;;;;;;-5.00;49.11;101383.33;129640;1276;108937;-74
2022/03/13 02:35:12;;;;;;;237.70;85.00;;;;;;;-4.98;49.02;101380.69;129606;1275;108805;-74
2022/03/13 02:38:18;;;;;;;227.50;83.80;;;;;;;-4.99;49.33;101379.52;129529;1276;108882;-74
2022/03/13 02:41:26;;;;;;;220.80;82.70;;;;;;;-5.02;48.95;101373.82;129521;1276;108993;-76
2022/03/13 02:44:31;;;;;;;214.90;79.70;;;;;;;-5.03;49.20;101371.92;129683;1276;108895;-76
2022/03/13 02:47:37;;;;;;;213.30;81.50;;;;;;;-5.04;49.17;101375.42;129624;1276;108914;-76
2022/03/13 02:50:43;;;;;;;212.40;78.70;;;;;;;-5.06;49.52;101375.45;129713;1276;108882;-76
2022/03/13 02:53:49;;;;;;;208.00;78.60;;;;;;;-5.06;49.28;101378.92;129542;1276;108923;-77
2022/03/13 02:56:55;;;;;;;197.30;75.80;;;;;;;-5.06;49.21;101378.40;129537;1276;108865;-77
2022/03/13 03:00:00;;;;;;;194.50;72.70;;;;;;;-5.05;49.91;101378.73;129661;1275;107477;-75
2022/03/13 03:03:05;;;;;;;185.40;73.50;;;;;;;-5.05;49.23;101383.07;129645;1276;108681;-76
2022/03/13 03:06:14;;;;;;;192.30;73.00;;;;;;;-5.04;49.95;101386.36;129648;1275;108686;-75
2022/03/13 03:09:20;;;;;;;205.60;72.40;;;;;;;-5.05;49.70;101388.62;129782;1275;108834;-74
2022/03/13 03:12:25;;;;;;;206.80;75.80;;;;;;;-5.04;49.83;101389.30;129736;1275;108755;-75
2022/03/13 03:15:33;;;;;;;196.60;76.20;;;;;;;-5.05;49.93;101389.49;129760;1275;108779;-75
2022/03/13 03:18:38;;;;;;;197.50;77.80;;;;;;;-5.05;49.85;101390.53;129704;1276;107782;-75
2022/03/13 03:21:44;;;;;;;195.50;75.10;;;;;;;-5.09;49.89;101388.85;129625;1276;108714;-75
2022/03/13 03:24:49;;;;;;;190.40;70.90;;;;;;;-5.12;49.94;101388.39;129638;1276;108827;-75
2022/03/13 03:27:57;;;;;;;179.90;71.10;;;;;;;-5.17;49.74;101380.13;129640;1275;108754;-76
2022/03/13 03:31:03;;;;;;;191.50;69.00;;;;;;;-5.19;49.87;101377.59;129535;1276;108774;-73
2022/03/13 03:34:15;;;;;;;172.40;65.60;;;;;;;-5.21;50.00;101384.37;129648;1276;108704;-72
2022/03/13 03:37:20;;;;;;;161.60;63.00;;;;;;;-5.21;49.60;101379.69;129724;1276;108686;-70
2022/03/13 03:40:29;;;;;;;159.20;59.90;;;;;;;-5.19;50.00;101382.27;129722;1276;108972;-73
2022/03/13 03:43:35;;;;;;;167.20;62.60;;;;;;;-5.19;49.96;101380.52;129578;1275;108461;-75
2022/03/13 03:46:41;;;;;;;157.80;58.50;;;;;;;-5.19;49.95;101381.73;129432;1276;108824;-75
2022/03/13 03:49:46;;;;;;;157.00;59.20;;;;;;;-5.25;50.11;101379.42;129661;1276;108848;-75
2022/03/13 03:52:55;;;;;;;151.80;56.40;;;;;;;-5.30;49.93;101372.05;129702;1275;108913;-75
2022/03/13 03:56:02;;;;;;;147.90;56.70;;;;;;;-5.31;50.22;101367.19;129747;1276;107760;-75
2022/03/13 03:59:07;;;;;;;151.60;57.70;;;;;;;-5.31;50.46;101366.52;129750;1276;108876;-75
2022/03/13 04:02:13;;;;;;;149.60;58.00;;;;;;;-5.30;50.26;101362.16;129731;1276;108860;-74
2022/03/13 04:05:19;;;;;;;150.50;58.00;;;;;;;-5.30;50.53;101358.86;129561;1276;108955;-75
2022/03/13 04:08:24;;;;;;;147.40;57.10;;;;;;;-5.32;50.47;101359.39;129583;1276;108893;-77
2022/03/13 04:11:30;;;;;;;153.20;56.60;;;;;;;-5.32;50.13;101360.96;129675;1275;108849;-75
2022/03/13 04:14:36;;;;;;;146.20;56.10;;;;;;;-5.36;50.16;101361.90;129756;1275;108983;-75
2022/03/13 04:17:42;;;;;;;149.50;54.30;;;;;;;-5.37;50.13;101361.92;129746;1276;108869;-75
2022/03/13 04:20:47;;;;;;;147.40;55.70;;;;;;;-5.37;50.37;101365.90;129706;1275;108660;-74
2022/03/13 04:23:53;;;;;;;150.00;54.40;;;;;;;-5.36;50.53;101365.02;129679;1276;108924;-75
2022/03/13 04:26:59;;;;;;;150.00;55.20;;;;;;;-5.34;50.77;101362.55;129755;1276;108802;-74
2022/03/13 04:30:08;;;;;;;136.60;51.80;;;;;;;-5.32;50.54;101360.29;129765;1275;106602;-74
2022/03/13 04:33:16;;;;;;;146.20;53.70;;;;;;;-5.29;50.81;101358.16;129717;1276;107132;-74
2022/03/13 04:36:22;;;;;;;152.50;55.50;;;;;;;-5.31;50.57;101355.59;129467;1276;108806;-75
2022/03/13 04:39:33;;;;;;;156.50;58.50;;;;;;;-5.32;50.42;101357.84;129521;1276;108783;-75
2022/03/13 04:42:39;;;;;;;153.30;54.60;;;;;;;-5.35;50.80;101358.76;129524;1276;108988;-75
2022/03/13 04:45:44;;;;;;;155.90;56.70;;;;;;;-5.35;51.03;101358.40;129613;1276;108887;-74
2022/03/13 04:48:50;;;;;;;154.00;56.10;;;;;;;-5.33;50.96;101363.06;129726;1276;108989;-74
2022/03/13 04:51:56;;;;;;;158.40;56.50;;;;;;;-5.29;51.07;101364.92;129779;1276;108972;-76
2022/03/13 04:55:05;;;;;;;160.80;57.20;;;;;;;-5.29;50.89;101359.18;129780;1276;108991;-76
2022/03/13 04:58:10;;;;;;;163.20;56.40;;;;;;;-5.27;51.29;101361.93;129672;1276;109084;-76
2022/03/13 05:01:16;;;;;;;155.60;57.00;;;;;;;-5.23;51.25;101361.52;129519;1275;108796;-75
2022/03/13 05:04:21;;;;;;;156.00;55.00;;;;;;;-5.19;51.23;101362.13;129559;1276;108869;-73
2022/03/13 05:07:28;;;;;;;163.30;58.50;;;;;;;-5.15;51.27;101363.80;129574;1276;107053;-76
2022/03/13 05:10:36;;;;;;;171.80;59.20;;;;;;;-5.11;51.55;101363.40;129737;1276;108773;-76
2022/03/13 05:13:42;;;;;;;165.10;59.70;;;;;;;-5.03;51.08;101363.26;129797;1275;108692;-73
2022/03/13 05:16:47;;;;;;;169.50;60.30;;;;;;;-5.00;51.47;101366.16;129728;1275;108842;-77
2022/03/13 05:19:53;;;;;;;170.80;59.70;;;;;;;-4.98;51.65;101364.90;129632;1274;108797;-73
2022/03/13 05:22:58;;;;;;;179.40;60.40;;;;;;;-4.90;51.49;101362.01;129587;1274;108829;-72
2022/03/13 05:26:04;;;;;;;177.90;62.90;;;;;;;-4.84;51.45;101363.44;129826;1274;108655;-74
2022/03/13 05:29:10;;;;;;;169.90;61.80;;;;;;;-4.77;51.64;101361.58;129699;1274;108722;-75
2022/03/13 05:32:16;;;;;;;180.30;62.80;;;;;;;-4.77;51.61;101361.59;129632;1274;108577;-76
2022/03/13 05:35:21;;;;;;;186.00;63.40;;;;;;;-4.74;51.75;101360.30;129765;1274;108766;-75
2022/03/13 05:38:27;;;;;;;165.50;58.30;;;;;;;-4.72;51.72;101358.71;129797;1274;108893;-76
2022/03/13 05:41:33;;;;;;;163.50;62.30;;;;;;;-4.71;51.64;101367.21;129649;1274;108742;-75
2022/03/13 05:44:39;;;;;;;163.50;60.70;;;;;;;-4.67;51.79;101371.83;129629;1274;108873;-74
2022/03/13 05:47:51;;;;;;;162.10;59.80;;;;;;;-4.62;51.82;101367.20;129738;1274;108811;-75
2022/03/13 05:50:56;;;;;;;163.30;60.90;;;;;;;-4.54;51.76;101373.66;129764;1274;108993;-74
2022/03/13 05:54:02;;;;;;;170.50;62.40;;;;;;;-4.48;51.93;101377.52;129799;1274;107742;-75
2022/03/13 05:57:08;;;;;;;165.50;61.50;;;;;;;-4.40;52.21;101379.64;129596;1274;108777;-76
2022/03/13 06:00:16;;;;;;;168.80;63.80;;;;;;;-4.32;51.98;101378.62;129614;1274;108930;-76
2022/03/13 06:03:23;;;;;;;175.30;62.60;;;;;;;-4.25;52.12;101376.73;129720;1274;107148;-77
2022/03/13 06:06:30;;;;;;;167.10;62.80;;;;;;;-4.17;52.19;101379.88;129685;1274;107682;-76
2022/03/13 06:09:36;;;;;;;158.20;62.90;;;;;;;-4.10;52.37;101381.98;129695;1274;108603;-77
2022/03/13 06:12:41;;;;;;;168.10;65.00;;;;;;;-4.02;52.42;101384.41;129634;1274;108682;-76
2022/03/13 06:15:47;;;;;;;166.10;64.30;;;;;;;-3.89;52.86;101385.02;129748;1276;108905;-74
2022/03/13 06:18:53;;;;;;;168.40;63.60;;;;;;;-3.80;53.03;101386.38;129633;1274;108704;-73
2022/03/13 06:22:02;;;;;;;176.80;65.50;;;;;;;-3.70;52.85;101393.46;129773;1274;108762;-74
2022/03/13 06:25:10;;;;;;;182.20;66.50;;;;;;;-3.60;53.14;101393.77;130095;1275;107459;-73
2022/03/13 06:28:16;;;;;;;169.70;66.00;;;;;;;-3.47;53.29;101387.38;129812;1275;108971;-75
2022/03/13 06:31:22;;;;;;;160.50;64.40;;;;;;;-3.33;53.58;101390.88;129837;1274;108863;-74
2022/03/13 06:34:27;;;;;;;183.60;72.60;;;;;;;-3.24;53.65;101390.66;129762;1274;108739;-73
2022/03/13 06:37:33;;;;;;;169.20;70.00;;;;;;;-3.22;53.95;101385.90;129853;1274;109137;-73
2022/03/13 06:40:38;;;;;;;184.50;76.60;;;;;;;-3.20;54.08;101387.60;129692;1274;106831;-75
2022/03/13 06:43:46;;;;;;;179.50;73.60;;;;;;;-3.13;54.22;101383.79;129785;1274;108555;-75
2022/03/13 06:46:52;;;;;;;181.00;74.50;;;;;;;-3.00;54.67;101381.38;129876;1274;108956;-77
2022/03/13 06:49:57;;;;;;;181.10;73.50;;;;;;;-2.84;54.77;101385.12;129721;1274;109104;-77
2022/03/13 06:53:02;;;;;;;209.90;88.30;;;;;;;-2.68;54.78;101390.64;129760;1274;108760;-75
2022/03/13 06:56:10;;;;;;;207.40;85.30;;;;;;;-2.50;54.79;101393.31;129477;1276;108856;-75
2022/03/13 06:59:16;;;;;;;204.80;85.10;;;;;;;-2.30;54.86;101396.42;129549;1276;108958;-75
2022/03/13 07:02:21;;;;;;;223.10;93.00;;;;;;;-2.11;54.63;101393.96;129492;1276;107606;-75
2022/03/13 07:05:27;;;;;;;234.60;96.20;;;;;;;-1.92;54.55;101397.59;129614;1274;108760;-75
2022/03/13 07:08:33;;;;;;;245.80;105.20;;;;;;;-1.74;54.55;101398.80;129703;1275;108770;-74
2022/03/13 07:11:49;;;;;;;259.80;112.20;;;;;;;-1.54;54.67;101398.19;129914;1274;108726;-74
2022/03/13 07:14:57;;;;;;;246.70;105.30;;;;;;;-1.34;54.43;101398.44;129813;1276;107161;-75
2022/03/13 07:18:03;;;;;;;211.10;91.00;;;;;;;-1.15;54.18;101397.14;129693;1276;108772;-79
2022/03/13 07:21:08;;;;;;;184.50;83.90;;;;;;;-0.97;53.99;101397.59;129654;1276;106938;-78
2022/03/13 07:24:14;;;;;;;163.40;75.50;;;;;;;-0.77;53.96;101395.88;129722;1276;108869;-80
2022/03/13 07:27:19;;;;;;;140.30;64.40;;;;;;;-0.58;53.91;101394.02;129887;1276;109146;-82
2022/03/13 07:30:25;;;;;;;118.40;54.60;;;;;;;-0.40;53.72;101386.88;129738;1276;108831;-72
2022/03/13 07:33:33;;;;;;;96.70;46.60;;;;;;;-0.17;53.25;101387.30;129568;1275;108946;-77
2022/03/13 07:36:39;;;;;;;74.40;34.10;;;;;;;0.03;52.79;101383.59;129559;1275;108932;-74
2022/03/13 07:39:47;;;;;;;81.60;40.10;;;;;;;0.23;52.15;101379.65;129554;1276;108798;-75
2022/03/13 07:42:52;;;;;;;63.20;32.40;;;;;;;0.41;52.14;101382.81;129714;1274;108766;-76
2022/03/13 07:45:58;;;;;;;52.40;27.30;;;;;;;0.58;51.85;101377.27;129634;1276;108765;-73
2022/03/13 07:49:03;;;;;;;55.40;26.70;;;;;;;0.73;51.56;101379.77;129677;1276;108899;-72
2022/03/13 07:52:12;;;;;;;41.90;22.30;;;;;;;0.90;51.24;101381.90;129524;1276;108804;-76
2022/03/13 07:55:18;;;;;;;41.30;21.20;;;;;;;1.07;50.81;101385.22;129718;1276;108763;-73
2022/03/13 07:58:24;;;;;;;42.10;20.80;;;;;;;1.24;50.69;101386.63;129497;1276;107034;-76
2022/03/13 08:01:30;;;;;;;46.30;24.10;;;;;;;1.38;50.70;101388.46;129726;1274;108898;-73
2022/03/13 08:04:36;;;;;;;45.90;24.40;;;;;;;1.53;50.61;101388.16;129872;1274;108791;-74
2022/03/13 08:07:42;;;;;;;48.10;25.60;;;;;;;1.68;50.69;101389.47;130331;1274;108671;-73
2022/03/13 08:10:47;;;;;;;46.00;25.10;;;;;;;1.80;50.45;101392.79;130138;1275;107484;-74
2022/03/13 08:13:53;;;;;;;48.10;24.20;;;;;;;1.91;50.17;101391.02;129768;1275;108699;-71
2022/03/13 08:16:58;;;;;;;41.80;21.60;;;;;;;2.06;50.15;101386.34;129688;1275;107530;-74
2022/03/13 08:20:05;;;;;;;39.50;20.70;;;;;;;2.20;49.81;101386.02;129710;1274;108885;-78
2022/03/13 08:23:10;;;;;;;39.80;22.40;;;;;;;2.34;49.72;101387.67;129811;1275;108797;-78
2022/03/13 08:26:16;;;;;;;43.90;22.60;;;;;;;2.47;49.66;101393.58;129668;1276;106716;-73
2022/03/13 08:29:22;;;;;;;39.70;18.90;;;;;;;2.57;49.39;101392.17;129735;1276;108664;-74
2022/03/13 08:32:27;;;;;;;39.90;21.10;;;;;;;2.67;49.24;101393.65;129581;1276;108777;-76
2022/03/13 08:35:33;;;;;;;37.60;20.20;;;;;;;2.75;48.96;101394.31;129618;1276;107807;-75
2022/03/13 08:38:38;;;;;;;39.70;21.60;;;;;;;2.87;48.87;101393.40;129400;1277;108696;-74
2022/03/13 08:41:43;;;;;;;38.40;20.90;;;;;;;2.95;48.78;101392.12;129460;1276;108842;-73
2022/03/13 08:44:49;;;;;;;37.50;19.90;;;;;;;3.02;48.31;101391.38;129429;1276;109005;-72
2022/03/13 08:47:54;;;;;;;35.10;18.30;;;;;;;3.12;48.51;101393.17;129385;1276;108939;-73
2022/03/13 08:51:00;;;;;;;34.30;18.70;;;;;;;3.23;48.30;101393.89;129483;1276;109018;-74
2022/03/13 08:54:07;;;;;;;34.80;18.30;;;;;;;3.31;48.39;101395.94;129570;1276;108816;-73
2022/03/13 08:57:13;;;;;;;33.20;17.20;;;;;;;3.40;47.92;101395.09;129585;1275;108821;-77
2022/03/13 09:00:21;;;;;;;25.90;13.80;;;;;;;3.52;47.48;101391.70;129565;1276;109045;-73
2022/03/13 09:03:28;;;;;;;25.10;13.80;;;;;;;3.62;47.03;101392.73;129667;1276;108776;-74
2022/03/13 09:06:34;;;;;;;26.30;15.00;;;;;;;3.73;47.11;101390.59;129501;1276;108729;-73
2022/03/13 09:09:39;;;;;;;35.40;18.80;;;;;;;3.83;47.14;101388.84;129428;1276;108757;-70
2022/03/13 09:12:45;;;;;;;37.40;18.90;;;;;;;3.91;47.20;101387.69;129301;1276;109003;-73
2022/03/13 09:15:51;;;;;;;29.40;15.60;;;;;;;4.03;47.06;101387.58;129559;1276;108293;-72
2022/03/13 09:18:56;;;;;;;26.10;14.10;;;;;;;4.12;46.66;101390.43;129365;1276;107516;-69
2022/03/13 09:34:33;;;;;;;22.60;14.20;;;;;;;4.86;45.49;101394.42;125618;1312;649516;-71
2022/03/13 09:37:39;;;;;;;23.10;14.40;;;;;;;5.06;44.27;101395.37;129000;1280;234101;-70
2022/03/13 09:40:44;;;;;;;20.60;14.00;;;;;;;5.14;44.83;101400.02;129368;1280;108715;-69
2022/03/13 09:43:49;;;;;;;23.80;15.10;;;;;;;5.20;44.13;101399.71;129118;1280;109615;-68
2022/03/13 09:46:55;;;;;;;24.40;15.80;;;;;;;5.26;44.52;101396.67;129212;1280;108709;-71
2022/03/13 09:50:01;;;;;;;22.60;15.50;;;;;;;5.34;43.87;101394.27;129155;1280;108788;-69
2022/03/13 09:53:07;;;;;;;23.20;15.60;;;;;;;5.39;44.03;101392.20;129256;1279;108898;-71
2022/03/13 09:56:12;;;;;;;21.80;15.10;;;;;;;5.42;43.54;101388.47;129443;1280;108873;-71
2022/03/13 09:59:18;;;;;;;25.10;15.80;;;;;;;5.45;43.37;101387.04;129315;1279;107693;-71
2022/03/13 10:02:34;;;;;;;25.80;16.20;;;;;;;5.51;43.42;101380.89;129364;1278;108557;-72
2022/03/13 10:05:45;;;;;;;23.70;16.00;;;;;;;5.59;42.85;101381.52;129261;1281;107809;-73
2022/03/13 10:08:50;;;;;;;21.90;14.70;;;;;;;5.65;43.12;101382.37;129359;1280;108890;-74
2022/03/13 10:12:08;;;;;;;22.80;15.30;;;;;;;5.70;42.76;101381.15;129340;1280;108956;-74
2022/03/13 10:15:14;;;;;;;21.10;13.70;;;;;;;5.82;42.29;101385.73;129395;1280;108813;-70
2022/03/13 10:18:21;;;;;;;23.70;14.80;;;;;;;5.89;41.91;101384.92;129212;1280;108673;-73
2022/03/13 10:21:26;;;;;;;21.90;14.60;;;;;;;5.98;42.20;101382.63;129232;1280;108702;-74
2022/03/13 10:24:41;;;;;;;20.70;14.00;;;;;;;6.05;42.10;101377.24;129349;1280;108669;-73
2022/03/13 10:27:46;;;;;;;22.00;14.70;;;;;;;6.16;41.76;101378.34;129674;1276;108839;-70
2022/03/13 10:31:08;;;;;;;21.70;14.10;;;;;;;6.22;42.04;101377.92;129508;1276;108870;-74
2022/03/13 10:34:23;;;;;;;23.30;15.20;;;;;;;6.31;41.45;101367.53;129552;1276;108517;-72
2022/03/13 10:37:37;;;;;;;19.90;14.00;;;;;;;6.42;41.29;101367.15;129583;1276;108742;-72
2022/03/13 10:40:45;;;;;;;21.50;14.50;;;;;;;6.50;40.83;101366.09;129574;1276;109229;-70
2022/03/13 10:43:58;;;;;;;23.70;16.70;;;;;;;6.53;39.78;101362.90;129448;1276;108778;-71
2022/03/13 10:47:08;;;;;;;20.30;13.60;;;;;;;6.62;40.32;101352.08;129636;1276;108741;-73
2022/03/13 10:50:17;;;;;;;21.50;14.30;;;;;;;6.65;40.61;101350.95;129681;1276;108770;-71
2022/03/13 10:53:24;;;;;;;20.60;14.20;;;;;;;6.67;40.78;101346.58;129698;1276;108668;-71
2022/03/13 10:56:29;;;;;;;21.40;14.00;;;;;;;6.72;40.34;101339.95;129708;1276;108797;-70
2022/03/13 10:59:35;;;;;;;23.50;15.10;;;;;;;6.82;39.95;101339.63;129566;1276;108953;-70
2022/03/13 11:02:40;;;;;;;22.80;15.50;;;;;;;6.89;39.91;101335.80;129637;1276;108839;-70
2022/03/13 11:05:49;;;;;;;20.60;14.90;;;;;;;6.95;39.99;101340.36;129267;1277;108614;-71
2022/03/13 11:08:55;;;;;;;22.00;14.80;;;;;;;6.96;39.68;101343.64;129325;1277;108720;-70
2022/03/13 11:12:09;;;;;;;21.80;14.70;;;;;;;6.99;39.68;101343.41;129870;1276;108707;-72
2022/03/13 11:15:15;;;;;;;22.50;15.20;;;;;;;7.00;38.62;101342.08;129768;1276;107800;-72
2022/03/13 11:18:23;;;;;;;22.80;15.40;;;;;;;7.04;39.85;101338.16;129340;1277;108798;-70
2022/03/13 11:21:29;;;;;;;22.00;15.20;;;;;;;7.05;40.28;101332.75;129590;1276;107188;-72
2022/03/13 11:24:36;;;;;;;22.20;15.60;;;;;;;7.06;39.94;101333.73;129536;1276;108959;-70
2022/03/13 11:27:43;;;;;;;20.40;14.90;;;;;;;7.14;40.02;101331.10;129260;1277;108670;-71
2022/03/13 11:30:49;;;;;;;20.90;14.40;;;;;;;7.18;40.05;101328.02;129235;1277;108791;-71
2022/03/13 11:34:12;;;;;;;23.80;16.20;;;;;;;7.22;39.93;101328.75;129361;1276;108109;-70
2022/03/13 11:40:53;;;;;;;23.90;16.10;;;;;;;7.32;40.01;101318.39;125944;1309;636138;-71
2022/03/13 11:44:02;;;;;;;20.50;15.40;;;;;;;7.31;39.42;101315.08;129178;1280;108661;-71
2022/03/13 11:47:26;;;;;;;23.10;16.00;;;;;;;7.36;38.85;101312.98;129301;1280;108772;-71
2022/03/13 11:50:48;;;;;;;20.80;14.40;;;;;;;7.42;39.03;101309.38;129334;1280;108705;-70
2022/03/13 11:53:53;;;;;;;23.90;15.40;;;;;;;7.45;39.01;101302.39;129254;1280;307273;-72
2022/03/13 11:57:14;;;;;;;22.20;15.70;;;;;;;7.53;38.80;101297.27;129673;1278;108777;-73
2022/03/13 12:00:34;;;;;;;21.30;15.80;;;;;;;7.60;38.81;101296.25;129251;1279;108566;-72
2022/03/13 12:04:00;;;;;;;21.90;15.40;;;;;;;7.62;38.55;101299.44;129394;1279;109014;-71
2022/03/13 12:07:24;;;;;;;19.60;13.50;;;;;;;7.64;39.19;101297.55;129369;1279;108094;-72
2022/03/13 12:10:35;;;;;;;20.60;14.20;;;;;;;7.70;39.01;101295.72;129673;1276;108735;-78
2022/03/13 12:13:49;;;;;;;25.10;16.70;;;;;;;7.73;38.97;101294.29;129860;1276;108805;-71
2022/03/13 12:17:10;;;;;;;22.00;16.00;;;;;;;7.77;38.69;101290.94;129613;1276;109510;-71
2022/03/13 12:20:26;;;;;;;23.30;17.10;;;;;;;7.83;38.63;101290.53;129712;1276;108551;-71
2022/03/13 12:23:36;;;;;;;24.90;17.60;;;;;;;7.87;38.85;101284.78;129846;1274;108731;-71
2022/03/13 12:26:43;;;;;;;25.50;17.60;;;;;;;7.89;38.62;101286.77;129750;1274;108775;-72
2022/03/13 12:29:55;;;;;;;24.70;17.60;;;;;;;7.89;39.02;101281.65;129318;1276;108814;-71
2022/03/13 12:33:02;;;;;;;29.00;18.00;;;;;;;7.90;38.68;101282.77;129733;1276;108696;-70
2022/03/13 12:36:09;;;;;;;25.60;18.50;;;;;;;7.92;39.04;101271.83;129418;1274;109526;-70
2022/03/13 12:39:17;;;;;;;24.30;18.00;;;;;;;7.94;39.03;101272.94;129433;1276;109282;-72
2022/03/13 12:42:24;;;;;;;31.70;20.60;;;;;;;7.97;38.78;101273.27;129597;1276;108847;-71
2022/03/13 12:45:31;;;;;;;27.60;17.90;;;;;;;7.99;38.82;101272.52;129613;1276;108878;-71
2022/03/13 12:48:38;;;;;;;24.00;17.30;;;;;;;8.05;39.00;101274.95;129672;1276;108965;-72
2022/03/13 12:51:45;;;;;;;24.20;16.70;;;;;;;8.11;38.92;101274.18;129606;1276;109159;-72
2022/03/13 12:54:59;;;;;;;22.90;16.80;;;;;;;8.19;39.06;101273.79;129502;1276;108674;-72
2022/03/13 12:58:05;;;;;;;23.80;15.40;;;;;;;8.25;38.61;101274.36;129588;1276;108819;-73
2022/03/13 13:01:21;;;;;;;27.40;17.30;;;;;;;8.29;38.89;101276.20;129504;1276;108571;-72
2022/03/13 13:04:26;;;;;;;25.30;16.30;;;;;;;8.28;39.09;101276.16;129520;1276;108590;-71
2022/03/13 13:07:33;;;;;;;19.60;13.80;;;;;;;8.29;38.66;101274.14;129876;1276;108870;-72
2022/03/13 13:10:39;;;;;;;23.70;14.80;;;;;;;8.29;38.69;101278.73;129580;1276;108965;-71
2022/03/13 13:13:56;;;;;;;21.70;14.30;;;;;;;8.30;39.05;101277.38;129559;1276;107496;-72
2022/03/13 13:17:06;;;;;;;24.70;15.80;;;;;;;8.31;38.75;101276.41;129757;1276;108735;-72
2022/03/13 13:20:23;;;;;;;24.30;15.40;;;;;;;8.32;38.90;101271.23;129651;1275;108841;-73
2022/03/13 13:23:31;;;;;;;24.90;16.30;;;;;;;8.33;38.89;101269.20;129877;1275;109156;-73
2022/03/13 13:26:43;;;;;;;23.80;15.40;;;;;;;8.38;38.87;101269.70;129642;1276;107932;-73
2022/03/13 13:29:49;;;;;;;25.20;17.30;;;;;;;8.42;39.02;101273.11;130071;1276;108879;-72
2022/03/13 13:32:56;;;;;;;25.60;16.90;;;;;;;8.47;39.13;101270.50;129609;1276;108827;-72
2022/03/13 13:36:04;;;;;;;33.80;22.90;;;;;;;8.48;39.15;101269.56;129741;1276;108764;-73
2022/03/13 13:39:11;;;;;;;27.00;17.30;;;;;;;8.47;38.92;101267.48;129737;1275;108802;-72
2022/03/13 13:42:25;;;;;;;26.50;16.60;;;;;;;8.43;39.06;101270.40;130199;1271;108493;-71
2022/03/13 13:45:36;;;;;;;29.70;18.40;;;;;;;8.44;39.14;101267.34;129993;1271;108790;-71
2022/03/13 13:48:49;;;;;;;23.10;16.50;;;;;;;8.47;39.38;101267.69;129868;1274;108727;-73
2022/03/13 13:52:11;;;;;;;26.30;17.20;;;;;;;8.48;39.20;101267.79;130067;1271;108782;-76
2022/03/13 13:55:25;;;;;;;26.10;17.30;;;;;;;8.50;39.28;101267.26;130026;1271;108480;-71
2022/03/13 13:58:34;;;;;;;32.00;19.30;;;;;;;8.50;39.33;101267.75;130047;1271;108921;-72
2022/03/13 14:01:41;;;;;;;28.10;18.50;;;;;;;8.52;39.17;101272.64;130061;1271;108542;-72
2022/03/13 14:04:52;;;;;;;30.30;20.20;;;;;;;8.54;39.44;101266.10;130220;1271;108872;-73
2022/03/13 14:08:01;;;;;;;28.50;18.50;;;;;;;8.55;39.37;101274.69;130089;1271;108847;-74
2022/03/13 14:11:06;;;;;;;29.10;18.60;;;;;;;8.53;39.47;101273.09;130230;1271;107658;-75